createdAt,value
2022-08-18T00:00:01.937Z,19.05
2022-08-18T00:02:31.059Z,19.05
2022-08-18T00:05:07.837Z,19.10
2022-08-18T00:07:37.795Z,19.10
2022-08-18T00:10:06.020Z,19.11
2022-08-18T00:12:39.327Z,19.16
2022-08-18T00:15:11.911Z,19.16
2022-08-18T00:17:39.753Z,19.15
2022-08-18T00:20:22.162Z,19.15
2022-08-18T00:22:53.302Z,19.13
2022-08-18T00:25:27.234Z,19.06
2022-08-18T00:27:55.071Z,19.03
2022-08-18T00:30:22.959Z,19.01
2022-08-18T00:32:56.860Z,18.93
2022-08-18T00:35:35.138Z,18.89
2022-08-18T00:38:04.302Z,18.87
2022-08-18T00:40:38.289Z,18.82
2022-08-18T00:43:06.952Z,18.82
2022-08-18T00:45:41.102Z,18.81
2022-08-18T00:48:10.277Z,18.75
2022-08-18T00:50:46.530Z,18.73
2022-08-18T00:53:30.511Z,18.74
2022-08-18T00:56:00.301Z,18.74
2022-08-18T00:58:45.927Z,18.70
2022-08-18T01:01:14.115Z,18.70
2022-08-18T01:03:42.114Z,18.69
2022-08-18T01:06:37.202Z,18.69
2022-08-18T01:09:05.091Z,18.66
2022-08-18T01:11:38.049Z,18.65
2022-08-18T01:14:16.955Z,18.67
2022-08-18T01:17:03.993Z,18.68
2022-08-18T01:19:50.258Z,18.73
2022-08-18T01:22:24.816Z,18.71
2022-08-18T01:25:14.646Z,18.71
2022-08-18T01:27:44.771Z,18.71
2022-08-18T01:30:15.500Z,18.69
2022-08-18T01:32:47.002Z,18.71
2022-08-18T01:35:23.031Z,18.72
2022-08-18T01:37:57.637Z,18.72
2022-08-18T01:41:17.335Z,18.75
2022-08-18T01:43:16.479Z,18.72
2022-08-18T01:45:44.283Z,18.68
2022-08-18T01:48:12.105Z,18.68
2022-08-18T01:50:41.054Z,18.65
2022-08-18T01:53:08.983Z,18.62
2022-08-18T01:55:39.869Z,18.59
2022-08-18T01:58:23.319Z,18.60
2022-08-18T02:00:54.093Z,18.56
2022-08-18T02:03:21.879Z,18.58
2022-08-18T02:05:50.611Z,18.59
2022-08-18T02:08:18.958Z,18.59
2022-08-18T02:10:46.815Z,18.63
2022-08-18T02:13:21.745Z,18.63
2022-08-18T02:15:54.182Z,18.62
2022-08-18T02:18:41.447Z,18.66
2022-08-18T02:21:18.942Z,18.64
2022-08-18T02:23:52.812Z,18.62
2022-08-18T02:26:21.975Z,18.61
2022-08-18T02:28:49.778Z,18.60
2022-08-18T02:31:20.291Z,18.60
2022-08-18T02:33:51.920Z,18.60
2022-08-18T02:36:21.201Z,18.58
2022-08-18T02:38:54.598Z,18.59
2022-08-18T02:41:30.089Z,18.62
2022-08-18T02:43:59.081Z,18.60
2022-08-18T02:46:29.337Z,18.60
2022-08-18T02:49:03.160Z,18.62
2022-08-18T02:51:30.926Z,18.57
2022-08-18T02:54:03.386Z,18.59
2022-08-18T02:56:41.231Z,18.55
2022-08-18T02:59:17.734Z,18.47
2022-08-18T03:01:50.282Z,18.43
2022-08-18T03:04:22.997Z,18.44
2022-08-18T03:06:57.168Z,18.41
2022-08-18T03:09:27.995Z,18.41
2022-08-18T03:11:55.758Z,18.41
2022-08-18T03:14:25.665Z,18.41
2022-08-18T03:16:55.087Z,18.41
2022-08-18T03:19:25.048Z,18.42
2022-08-18T03:21:53.626Z,18.43
2022-08-18T03:24:23.052Z,18.41
2022-08-18T03:26:52.295Z,18.41
2022-08-18T03:29:20.674Z,18.40
2022-08-18T03:31:49.694Z,18.43
2022-08-18T03:34:20.669Z,18.43
2022-08-18T03:36:50.054Z,18.40
2022-08-18T03:39:18.314Z,18.39
2022-08-18T03:41:58.556Z,18.39
2022-08-18T03:44:33.276Z,18.36
2022-08-18T03:47:02.182Z,18.28
2022-08-18T03:49:32.562Z,18.27
2022-08-18T03:52:03.469Z,18.23
2022-08-18T03:54:39.043Z,18.24
2022-08-18T03:57:11.184Z,18.25
2022-08-18T03:59:39.352Z,18.24
2022-08-18T04:02:07.114Z,18.22
2022-08-18T04:04:34.891Z,18.22
2022-08-18T04:07:12.793Z,18.21
2022-08-18T04:09:40.606Z,18.20
2022-08-18T04:12:16.298Z,18.15
2022-08-18T04:14:49.302Z,18.18
2022-08-18T04:17:25.130Z,18.18
2022-08-18T04:19:56.629Z,18.17
2022-08-18T04:22:30.643Z,18.18
2022-08-18T04:24:58.364Z,18.11
2022-08-18T04:27:26.952Z,18.05
2022-08-18T04:29:57.800Z,18.01
2022-08-18T04:32:33.378Z,18.04
2022-08-18T04:35:10.039Z,18.02
2022-08-18T04:37:41.890Z,18.07
2022-08-18T04:40:15.689Z,18.11
2022-08-18T04:42:46.086Z,18.10
2022-08-18T04:45:14.391Z,18.15
2022-08-18T04:47:46.949Z,18.18
2022-08-18T04:50:15.701Z,18.18
2022-08-18T04:53:02.903Z,18.16
2022-08-18T04:55:30.789Z,18.18
2022-08-18T04:58:00.445Z,18.17
2022-08-18T05:00:33.251Z,18.14
2022-08-18T05:03:03.504Z,18.13
2022-08-18T05:05:33.902Z,18.14
2022-08-18T05:08:04.675Z,18.11
2022-08-18T05:10:32.588Z,18.11
2022-08-18T05:13:00.383Z,18.10
2022-08-18T05:15:28.454Z,18.09
2022-08-18T05:17:58.568Z,18.13
2022-08-18T05:20:26.518Z,18.17
2022-08-18T05:22:54.497Z,18.19
2022-08-18T05:25:22.481Z,18.22
2022-08-18T05:27:50.435Z,18.23
2022-08-18T05:30:20.348Z,18.26
2022-08-18T05:32:50.488Z,18.27
2022-08-18T05:35:27.592Z,18.29
2022-08-18T05:38:04.250Z,18.32
2022-08-18T05:40:33.012Z,18.35
2022-08-18T05:43:00.765Z,18.34
2022-08-18T05:45:33.060Z,18.38
2022-08-18T05:48:03.746Z,18.41
2022-08-18T05:50:32.498Z,18.36
2022-08-18T05:53:13.572Z,18.35
2022-08-18T05:56:15.183Z,18.46
2022-08-18T05:58:45.231Z,18.55
2022-08-18T06:01:27.340Z,18.59
2022-08-18T06:04:13.028Z,18.67
2022-08-18T06:06:45.450Z,18.74
2022-08-18T06:09:29.441Z,18.73
2022-08-18T06:12:28.397Z,18.76
2022-08-18T06:15:14.728Z,18.70
2022-08-18T06:17:59.568Z,18.76
2022-08-18T06:20:55.743Z,18.76
2022-08-18T06:23:53.777Z,18.82
2022-08-18T06:26:26.551Z,18.93
2022-08-18T06:29:03.825Z,19.11
2022-08-18T06:31:45.968Z,19.26
2022-08-18T06:34:16.864Z,19.33
2022-08-18T06:37:01.641Z,19.41
2022-08-18T06:39:50.401Z,19.50
2022-08-18T06:42:29.326Z,19.63
2022-08-18T06:45:10.906Z,19.70
2022-08-18T06:48:04.405Z,19.79
2022-08-18T06:50:53.408Z,19.83
2022-08-18T06:53:27.745Z,19.83
2022-08-18T06:55:59.351Z,19.82
2022-08-18T06:58:33.997Z,19.89
2022-08-18T07:01:11.630Z,20.01
2022-08-18T07:03:51.298Z,20.07
2022-08-18T07:06:28.076Z,20.15
2022-08-18T07:09:20.135Z,20.23
2022-08-18T07:12:07.764Z,20.30
2022-08-18T07:14:48.025Z,20.37
2022-08-18T07:17:42.851Z,20.47
2022-08-18T07:20:23.596Z,20.50
2022-08-18T07:23:07.924Z,20.61
2022-08-18T07:25:44.269Z,20.70
2022-08-18T07:28:47.102Z,20.79
2022-08-18T07:31:26.092Z,20.97
2022-08-18T07:34:00.688Z,21.07
2022-08-18T07:36:34.682Z,21.17
2022-08-18T07:39:16.818Z,21.20
2022-08-18T07:41:58.617Z,21.17
2022-08-18T07:44:40.760Z,21.16
2022-08-18T07:47:15.395Z,21.08
2022-08-18T07:50:13.383Z,21.14
2022-08-18T07:52:47.062Z,21.14
2022-08-18T07:55:48.367Z,21.09
2022-08-18T07:58:50.193Z,21.09
2022-08-18T08:01:33.596Z,21.17
2022-08-18T08:04:41.518Z,21.16
2022-08-18T08:07:25.151Z,21.20
2022-08-18T08:10:37.392Z,21.24
2022-08-18T08:13:54.725Z,21.25
2022-08-18T08:16:48.714Z,21.34
2022-08-18T08:19:59.064Z,21.45
2022-08-18T08:22:43.000Z,21.65
2022-08-18T08:25:47.737Z,21.80
2022-08-18T08:28:37.442Z,21.99
2022-08-18T08:31:36.565Z,22.28
2022-08-18T08:34:06.262Z,22.50
2022-08-18T08:36:43.334Z,22.72
2022-08-18T08:39:19.976Z,22.91
2022-08-18T08:42:29.844Z,23.02
2022-08-18T08:44:59.845Z,23.21
2022-08-18T08:47:37.978Z,23.42
2022-08-18T08:50:10.310Z,23.56
2022-08-18T08:53:12.796Z,23.61
2022-08-18T08:55:47.098Z,23.79
2022-08-18T08:58:27.895Z,23.96
2022-08-18T09:00:55.686Z,24.14
2022-08-18T09:03:32.787Z,24.15
2022-08-18T09:06:22.073Z,24.30
2022-08-18T09:09:27.514Z,24.23
2022-08-18T09:12:40.141Z,24.27
2022-08-18T09:15:30.194Z,24.07
2022-08-18T09:18:18.143Z,24.17
2022-08-18T09:21:21.762Z,24.12
2022-08-18T09:23:52.271Z,23.92
2022-08-18T09:26:46.141Z,23.93
2022-08-18T09:29:25.674Z,23.87
2022-08-18T09:35:14.968Z,24.00
2022-08-18T09:37:47.449Z,24.51
2022-08-18T09:41:02.004Z,24.48
2022-08-18T09:44:17.929Z,24.19
2022-08-18T09:46:49.465Z,23.89
2022-08-18T09:49:31.740Z,23.88
2022-08-18T09:52:30.062Z,24.29
2022-08-18T09:55:07.521Z,24.39
2022-08-18T09:57:43.813Z,24.22
2022-08-18T10:00:15.451Z,24.09
2022-08-18T10:03:14.749Z,23.94
2022-08-18T10:05:59.639Z,23.82
2022-08-18T10:08:47.474Z,23.71
2022-08-18T10:11:50.979Z,23.82
2022-08-18T10:14:28.988Z,23.99
2022-08-18T10:17:23.393Z,24.00
2022-08-18T10:20:08.235Z,24.29
2022-08-18T10:22:55.123Z,24.40
2022-08-18T10:25:41.180Z,24.39
2022-08-18T10:28:11.814Z,24.28
2022-08-18T10:30:56.820Z,24.17
2022-08-18T10:33:58.130Z,24.11
2022-08-18T10:36:45.856Z,24.03
2022-08-18T10:39:25.233Z,23.90
2022-08-18T10:42:16.172Z,23.80
2022-08-18T10:44:51.672Z,23.64
2022-08-18T10:47:33.401Z,23.61
2022-08-18T10:50:04.484Z,23.58
2022-08-18T10:52:54.588Z,23.55
2022-08-18T10:56:16.701Z,23.49
2022-08-18T10:59:00.150Z,23.39
2022-08-18T11:01:46.338Z,23.31
2022-08-18T11:04:34.160Z,23.29
2022-08-18T11:07:29.143Z,23.25
2022-08-18T11:10:13.323Z,23.27
2022-08-18T11:13:08.660Z,23.38
2022-08-18T11:16:17.379Z,23.43
2022-08-18T11:18:49.864Z,23.44
2022-08-18T11:21:43.271Z,23.59
2022-08-18T11:24:18.685Z,23.66
2022-08-18T11:26:52.999Z,23.68
2022-08-18T11:29:32.546Z,23.62
2022-08-18T11:32:34.831Z,23.62
2022-08-18T11:35:12.039Z,23.59
2022-08-18T11:37:51.565Z,23.65
2022-08-18T11:43:40.800Z,23.70
2022-08-18T11:46:27.995Z,23.72
2022-08-18T11:48:57.697Z,23.71
2022-08-18T11:51:33.418Z,23.75
2022-08-18T11:54:19.021Z,23.84
2022-08-18T11:56:49.178Z,23.99
2022-08-18T11:59:54.473Z,24.22
2022-08-18T12:02:26.496Z,24.39
2022-08-18T12:05:10.215Z,24.42
2022-08-18T12:07:57.025Z,24.43
2022-08-18T12:10:31.704Z,24.42
2022-08-18T12:13:02.327Z,24.45
2022-08-18T12:18:33.498Z,24.46
2022-08-18T12:21:08.473Z,24.43
2022-08-18T12:23:49.685Z,24.49
2022-08-18T12:26:38.219Z,24.54
2022-08-18T12:29:11.248Z,24.60
2022-08-18T12:31:48.157Z,24.64
2022-08-18T12:34:24.958Z,24.57
2022-08-18T12:36:59.320Z,24.51
2022-08-18T12:39:28.363Z,24.50
2022-08-18T12:41:57.028Z,24.40
2022-08-18T12:44:35.907Z,24.44
2022-08-18T12:47:16.702Z,24.48
2022-08-18T12:50:04.404Z,24.56
2022-08-18T12:52:44.110Z,24.63
2022-08-18T12:55:21.964Z,24.79
2022-08-18T12:57:55.595Z,25.00
2022-08-18T13:00:33.933Z,25.16
2022-08-18T13:03:08.431Z,25.27
2022-08-18T13:05:43.875Z,25.19
2022-08-18T13:08:27.665Z,25.24
2022-08-18T13:11:15.176Z,25.33
2022-08-18T13:13:56.345Z,25.40
2022-08-18T13:16:30.507Z,25.35
2022-08-18T13:19:15.614Z,25.26
2022-08-18T13:21:49.500Z,25.20
2022-08-18T13:24:23.150Z,25.09
2022-08-18T13:26:57.299Z,24.98
2022-08-18T13:29:27.913Z,24.91
2022-08-18T13:32:10.212Z,24.83
2022-08-18T13:34:46.998Z,24.74
2022-08-18T13:37:20.825Z,24.70
2022-08-18T13:39:52.842Z,24.66
2022-08-18T13:42:29.654Z,24.62
2022-08-18T13:45:25.121Z,24.57
2022-08-18T13:47:54.994Z,24.54
2022-08-18T13:50:34.622Z,24.51
2022-08-18T13:53:05.865Z,24.46
2022-08-18T13:55:39.093Z,24.45
2022-08-18T13:58:23.158Z,24.40
2022-08-18T14:01:39.649Z,24.33
2022-08-18T14:04:05.908Z,24.32
2022-08-18T14:06:56.239Z,24.30
2022-08-18T14:09:37.634Z,24.26
2022-08-18T14:12:15.677Z,24.26
2022-08-18T14:14:55.763Z,24.23
2022-08-18T14:17:28.003Z,24.21
2022-08-18T14:20:27.327Z,24.14
2022-08-18T14:23:24.003Z,24.01
2022-08-18T14:26:20.286Z,23.95
2022-08-18T14:28:55.652Z,23.93
2022-08-18T14:31:29.859Z,23.85
2022-08-18T14:34:05.144Z,23.83
2022-08-18T14:36:32.974Z,23.78
2022-08-18T14:39:05.367Z,23.74
2022-08-18T14:41:49.426Z,23.67
2022-08-18T14:44:32.554Z,23.60
2022-08-18T14:47:09.884Z,23.54
2022-08-18T14:49:48.173Z,23.52
2022-08-18T14:52:16.162Z,23.48
2022-08-18T14:54:51.975Z,23.41
2022-08-18T14:57:30.278Z,23.33
2022-08-18T15:00:05.275Z,23.30
2022-08-18T15:02:38.081Z,23.28
2022-08-18T15:05:19.897Z,23.28
2022-08-18T15:07:59.973Z,23.26
2022-08-18T15:10:30.137Z,23.22
2022-08-18T15:13:05.044Z,23.17
2022-08-18T15:15:51.238Z,23.13
2022-08-18T15:18:26.574Z,23.08
2022-08-18T15:21:34.725Z,23.05
2022-08-18T15:24:32.180Z,22.98
2022-08-18T15:27:10.449Z,22.97
2022-08-18T15:29:50.899Z,22.94
2022-08-18T15:32:18.729Z,22.86
2022-08-18T15:35:00.407Z,22.79
2022-08-18T15:37:43.575Z,22.78
2022-08-18T15:40:30.170Z,22.66
2022-08-18T15:43:02.429Z,22.59
2022-08-18T15:45:58.625Z,22.49
2022-08-18T15:48:27.066Z,22.44
2022-08-18T15:51:12.062Z,22.40
2022-08-18T15:53:48.125Z,22.36
2022-08-18T15:56:21.385Z,22.33
2022-08-18T15:58:53.971Z,22.23
2022-08-18T16:01:32.038Z,22.26
2022-08-18T16:04:00.812Z,22.25
2022-08-18T16:06:32.350Z,22.16
2022-08-18T16:09:03.217Z,22.06
2022-08-18T16:11:34.098Z,21.79
2022-08-18T16:14:04.673Z,21.61
2022-08-18T16:16:37.209Z,21.51
2022-08-18T16:19:10.683Z,21.40
2022-08-18T16:21:42.017Z,21.24
2022-08-18T16:24:15.517Z,21.17
2022-08-18T16:26:48.282Z,21.12
2022-08-18T16:29:24.348Z,21.00
2022-08-18T16:31:52.329Z,20.79
2022-08-18T16:34:20.176Z,20.71
2022-08-18T16:36:47.974Z,20.68
2022-08-18T16:39:15.803Z,20.70
2022-08-18T16:41:47.662Z,20.68
2022-08-18T16:44:23.576Z,20.71
2022-08-18T16:46:52.886Z,20.68
2022-08-18T16:49:22.045Z,20.65
2022-08-18T16:51:49.784Z,20.61
2022-08-18T16:54:17.756Z,20.55
2022-08-18T16:56:51.355Z,20.53
2022-08-18T16:59:37.557Z,20.46
2022-08-18T17:02:37.396Z,20.46
2022-08-18T17:05:05.261Z,20.40
2022-08-18T17:07:39.056Z,20.32
2022-08-18T17:10:11.626Z,20.22
2022-08-18T17:12:46.470Z,20.07
2022-08-18T17:15:17.150Z,20.00
2022-08-18T17:17:49.502Z,19.89
2022-08-18T17:20:19.159Z,19.72
2022-08-18T17:22:49.868Z,19.62
2022-08-18T17:25:22.845Z,19.52
2022-08-18T17:27:57.332Z,19.40
2022-08-18T17:30:28.269Z,19.37
2022-08-18T17:33:03.195Z,19.32
2022-08-18T17:35:41.126Z,19.28
2022-08-18T17:38:35.392Z,19.26
2022-08-18T17:41:06.344Z,19.27
2022-08-18T17:46:29.102Z,19.25
2022-08-18T17:49:19.474Z,19.22
2022-08-18T17:51:55.360Z,19.20
2022-08-18T17:54:29.181Z,19.25
2022-08-18T17:57:02.550Z,19.24
2022-08-18T17:59:45.368Z,19.25
2022-08-18T18:02:29.593Z,19.27
2022-08-18T18:05:09.180Z,19.25
2022-08-18T18:08:03.528Z,19.25
2022-08-18T18:11:04.368Z,19.26
2022-08-18T18:13:33.606Z,19.29
2022-08-18T18:16:23.804Z,19.27
2022-08-18T18:19:01.529Z,19.24
2022-08-18T18:21:55.414Z,19.24
2022-08-18T18:24:36.582Z,19.16
2022-08-18T18:27:28.911Z,19.12
2022-08-18T18:30:03.514Z,19.13
2022-08-18T18:32:39.952Z,19.17
2022-08-18T18:35:16.301Z,19.20
2022-08-18T18:37:57.141Z,19.14
2022-08-18T18:40:51.028Z,19.10
2022-08-18T18:43:35.830Z,19.01
2022-08-18T18:46:30.973Z,18.98
2022-08-18T18:49:29.489Z,18.93
2022-08-18T18:51:59.718Z,18.95
2022-08-18T18:54:40.646Z,18.95
2022-08-18T18:57:37.416Z,18.99
2022-08-18T19:00:26.431Z,19.01
2022-08-18T19:03:04.627Z,19.04
2022-08-18T19:06:06.541Z,19.05
2022-08-18T19:09:09.676Z,19.04
2022-08-18T19:11:53.951Z,19.05
2022-08-18T19:14:27.698Z,19.04
2022-08-18T19:17:01.368Z,19.01
2022-08-18T19:19:35.804Z,19.02
2022-08-18T19:22:22.427Z,19.03
2022-08-18T19:25:23.376Z,19.02
2022-08-18T19:28:10.624Z,18.97
2022-08-18T19:30:43.804Z,18.97
2022-08-18T19:33:12.799Z,18.95
2022-08-18T19:35:57.359Z,18.96
2022-08-18T19:38:48.688Z,18.94
2022-08-18T19:41:20.974Z,18.92
2022-08-18T19:44:17.996Z,18.93
2022-08-18T19:46:51.695Z,18.93
2022-08-18T19:49:49.524Z,18.92
2022-08-18T19:52:46.426Z,18.92
2022-08-18T19:55:45.860Z,18.89
2022-08-18T19:58:33.069Z,18.86
2022-08-18T20:01:24.905Z,18.83
2022-08-18T20:04:19.967Z,18.83
2022-08-18T20:06:51.104Z,18.87
2022-08-18T20:09:21.606Z,18.86
2022-08-18T20:12:10.889Z,18.88
2022-08-18T20:14:39.484Z,18.85
2022-08-18T20:17:17.885Z,18.86
2022-08-18T20:20:00.627Z,18.85
2022-08-18T20:22:36.614Z,18.85
2022-08-18T20:25:31.539Z,18.82
2022-08-18T20:28:03.363Z,18.81
2022-08-18T20:30:55.421Z,18.82
2022-08-18T20:33:33.084Z,18.83
2022-08-18T20:36:30.058Z,18.83
2022-08-18T20:39:02.675Z,18.73
2022-08-18T20:41:31.186Z,18.67
2022-08-18T20:44:07.568Z,18.63
2022-08-18T20:47:03.148Z,18.60
2022-08-18T20:50:08.345Z,18.60
2022-08-18T20:52:47.523Z,18.58
2022-08-18T20:55:30.709Z,18.54
2022-08-18T20:58:08.091Z,18.52
2022-08-18T21:00:37.775Z,18.55
2022-08-18T21:03:12.665Z,18.60
2022-08-18T21:05:46.531Z,18.63
2022-08-18T21:08:20.814Z,18.62
2022-08-18T21:10:59.098Z,18.62
2022-08-18T21:13:43.006Z,18.65
2022-08-18T21:16:25.925Z,18.59
2022-08-18T21:19:14.847Z,18.60
2022-08-18T21:21:48.136Z,18.64
2022-08-18T21:24:32.723Z,18.63
2022-08-18T21:27:07.243Z,18.64
2022-08-18T21:29:47.354Z,18.63
2022-08-18T21:32:23.358Z,18.62
2022-08-18T21:34:53.339Z,18.63
2022-08-18T21:37:21.324Z,18.66
2022-08-18T21:39:55.541Z,18.69
2022-08-18T21:42:27.503Z,18.71
2022-08-18T21:44:57.044Z,18.70
2022-08-18T21:47:33.763Z,18.72
2022-08-18T21:50:10.675Z,18.75
2022-08-18T21:52:53.958Z,18.76
2022-08-18T21:55:35.024Z,18.75
2022-08-18T21:58:18.499Z,18.73
2022-08-18T22:01:11.679Z,18.74
2022-08-18T22:04:17.834Z,18.69
2022-08-18T22:07:01.221Z,18.69
2022-08-18T22:09:53.690Z,18.69
2022-08-18T22:12:55.370Z,18.65
2022-08-18T22:15:47.318Z,18.59
2022-08-18T22:18:18.013Z,18.61
2022-08-18T22:20:53.912Z,18.62
2022-08-18T22:23:47.941Z,18.63
2022-08-18T22:26:18.576Z,18.63
2022-08-18T22:28:56.561Z,18.67
2022-08-18T22:31:24.910Z,18.69
2022-08-18T22:33:53.119Z,18.74
2022-08-18T22:36:26.709Z,18.72
2022-08-18T22:38:54.619Z,18.73
2022-08-18T22:41:22.361Z,18.75
2022-08-18T22:43:54.785Z,18.78
2022-08-18T22:46:25.387Z,18.73
2022-08-18T22:48:53.887Z,18.70
2022-08-18T22:51:25.426Z,18.73
2022-08-18T22:53:53.385Z,18.73
2022-08-18T22:56:33.977Z,18.73
2022-08-18T22:59:05.876Z,18.74
2022-08-18T23:01:42.633Z,18.74
2022-08-18T23:04:12.592Z,18.74
2022-08-18T23:06:40.385Z,18.75
2022-08-18T23:09:08.593Z,18.74
2022-08-18T23:11:41.133Z,18.75
2022-08-18T23:14:08.962Z,18.78
2022-08-18T23:16:39.647Z,18.78
2022-08-18T23:19:07.399Z,18.80
2022-08-18T23:21:35.904Z,18.81
2022-08-18T23:24:05.761Z,18.81
2022-08-18T23:26:36.149Z,18.81
2022-08-18T23:29:05.572Z,18.79
2022-08-18T23:31:36.310Z,18.80
2022-08-18T23:34:04.092Z,18.79
2022-08-18T23:36:34.659Z,18.79
2022-08-18T23:39:02.541Z,18.79
2022-08-18T23:41:30.333Z,18.79
2022-08-18T23:44:01.219Z,18.76
2022-08-18T23:46:31.013Z,18.75
2022-08-18T23:48:59.328Z,18.74
2022-08-18T23:51:30.550Z,18.72
2022-08-18T23:54:00.106Z,18.70
2022-08-18T23:56:29.138Z,18.67
2022-08-18T23:58:57.215Z,18.71
